createdAt,value
2019-01-23T00:00:37.298Z,39.73
2019-01-23T00:03:06.089Z,36.45
2019-01-23T00:05:34.600Z,39.80
2019-01-23T00:08:03.730Z,40.63
2019-01-23T00:10:32.195Z,41.23
2019-01-23T00:13:00.587Z,40.95
2019-01-23T00:15:29.052Z,37.53
2019-01-23T00:17:57.496Z,37.28
2019-01-23T00:20:25.955Z,37.08
2019-01-23T00:22:55.720Z,34.13
2019-01-23T00:25:24.379Z,33.38
2019-01-23T00:27:52.853Z,31.55
2019-01-23T00:30:21.342Z,32.35
2019-01-23T00:32:49.917Z,33.98
2019-01-23T00:35:18.405Z,32.80
2019-01-23T00:37:47.986Z,38.10
2019-01-23T00:40:16.553Z,35.38
2019-01-23T00:42:45.124Z,35.20
2019-01-23T00:45:13.785Z,33.83
2019-01-23T00:47:42.868Z,33.50
2019-01-23T00:50:11.868Z,35.90
2019-01-23T00:52:40.339Z,36.17
2019-01-23T00:55:12.035Z,33.73
2019-01-23T00:57:40.499Z,33.58
2019-01-23T01:00:19.780Z,37.40
2019-01-23T01:02:52.117Z,33.25
2019-01-23T01:05:20.869Z,32.85
2019-01-23T01:07:49.540Z,33.20
2019-01-23T01:10:18.564Z,33.65
2019-01-23T01:12:47.139Z,33.88
2019-01-23T01:15:16.383Z,33.30
2019-01-23T01:17:44.780Z,35.08
2019-01-23T01:20:13.919Z,32.03
2019-01-23T01:22:42.385Z,33.63
2019-01-23T01:25:13.973Z,35.40
2019-01-23T01:27:44.137Z,36.88
2019-01-23T01:30:19.557Z,35.80
2019-01-23T01:32:47.932Z,37.10
2019-01-23T01:35:16.970Z,38.25
2019-01-23T01:37:45.445Z,37.67
2019-01-23T01:40:16.160Z,35.98
2019-01-23T01:42:44.735Z,38.05
2019-01-23T01:45:14.725Z,39.42
2019-01-23T01:47:44.800Z,39.60
2019-01-23T01:50:19.617Z,42.00
2019-01-23T01:52:49.491Z,41.55
2019-01-23T01:55:17.975Z,40.10
2019-01-23T01:57:46.567Z,36.83
2019-01-23T02:00:29.835Z,39.73
2019-01-23T02:02:58.302Z,42.35
2019-01-23T02:05:27.428Z,38.55
2019-01-23T02:07:56.092Z,41.10
2019-01-23T02:10:25.291Z,42.58
2019-01-23T02:12:53.633Z,41.45
2019-01-23T02:15:22.197Z,40.75
2019-01-23T02:17:52.367Z,43.00
2019-01-23T02:20:26.128Z,44.95
2019-01-23T02:22:54.712Z,42.58
2019-01-23T02:25:24.999Z,40.48
2019-01-23T02:27:55.280Z,43.83
2019-01-23T02:30:24.609Z,43.42
2019-01-23T02:32:53.775Z,42.43
2019-01-23T02:35:22.432Z,43.52
2019-01-23T02:37:50.912Z,45.03
2019-01-23T02:40:21.646Z,41.73
2019-01-23T02:42:50.042Z,38.42
2019-01-23T02:45:19.755Z,41.50
2019-01-23T02:47:49.017Z,44.18
2019-01-23T02:50:17.732Z,43.70
2019-01-23T02:52:46.080Z,40.95
2019-01-23T02:55:14.709Z,45.67
2019-01-23T02:57:43.060Z,44.10
2019-01-23T03:00:15.614Z,43.63
2019-01-23T03:02:44.383Z,41.65
2019-01-23T03:05:16.067Z,42.43
2019-01-23T03:07:44.415Z,42.50
2019-01-23T03:10:17.124Z,43.98
2019-01-23T03:12:45.693Z,37.98
2019-01-23T03:15:14.608Z,40.17
2019-01-23T03:17:42.964Z,40.10
2019-01-23T03:20:13.948Z,40.20
2019-01-23T03:22:42.297Z,41.48
2019-01-23T03:25:11.441Z,40.05
2019-01-23T03:27:39.925Z,41.37
2019-01-23T03:30:12.757Z,43.23
2019-01-23T03:32:41.111Z,40.60
2019-01-23T03:35:10.683Z,44.93
2019-01-23T03:37:39.051Z,40.17
2019-01-23T03:40:12.007Z,36.95
2019-01-23T03:42:40.373Z,38.58
2019-01-23T03:45:10.739Z,38.90
2019-01-23T03:47:39.250Z,40.05
2019-01-23T03:50:10.642Z,39.67
2019-01-23T03:52:39.254Z,39.63
2019-01-23T03:55:09.323Z,37.95
2019-01-23T03:57:37.873Z,39.63
2019-01-23T04:00:11.547Z,37.90
2019-01-23T04:02:40.529Z,37.93
2019-01-23T04:05:09.733Z,34.30
2019-01-23T04:07:38.108Z,35.98
2019-01-23T04:10:10.237Z,33.92
2019-01-23T04:12:39.882Z,35.58
2019-01-23T04:15:09.827Z,38.28
2019-01-23T04:17:38.280Z,38.65
2019-01-23T04:20:19.831Z,39.42
2019-01-23T04:22:48.189Z,38.50
2019-01-23T04:25:16.756Z,39.50
2019-01-23T04:27:45.116Z,38.35
2019-01-23T04:30:19.762Z,38.25
2019-01-23T04:32:48.215Z,36.00
2019-01-23T04:35:16.703Z,36.85
2019-01-23T04:37:45.292Z,36.60
2019-01-23T04:40:14.073Z,34.92
2019-01-23T04:42:42.553Z,33.95
2019-01-23T04:45:12.697Z,31.40
2019-01-23T04:47:41.177Z,33.53
2019-01-23T04:50:11.285Z,31.73
2019-01-23T04:53:00.619Z,32.15
2019-01-23T04:55:29.034Z,31.87
2019-01-23T04:57:57.391Z,33.50
2019-01-23T05:00:30.125Z,37.33
2019-01-23T05:02:58.534Z,33.63
2019-01-23T05:05:27.053Z,34.85
2019-01-23T05:07:56.028Z,35.23
2019-01-23T05:10:24.484Z,36.30
2019-01-23T05:12:52.913Z,32.13
2019-01-23T05:15:21.400Z,33.67
2019-01-23T05:17:49.748Z,36.68
2019-01-23T05:20:18.221Z,34.95
2019-01-23T05:22:46.570Z,34.83
2019-01-23T05:25:15.004Z,34.60
2019-01-23T05:27:43.449Z,34.60
2019-01-23T05:30:22.255Z,34.10
2019-01-23T05:32:50.705Z,31.20
2019-01-23T05:35:19.636Z,30.92
2019-01-23T05:37:48.882Z,32.95
2019-01-23T05:40:17.741Z,32.53
2019-01-23T05:42:50.465Z,33.80
2019-01-23T05:45:20.834Z,30.65
2019-01-23T05:47:49.507Z,26.82
2019-01-23T05:50:18.453Z,28.17
2019-01-23T05:52:47.982Z,29.07
2019-01-23T05:55:17.088Z,28.65
2019-01-23T05:57:48.552Z,29.23
2019-01-23T06:00:22.680Z,28.85
2019-01-23T06:02:56.795Z,28.52
2019-01-23T06:05:25.229Z,29.82
2019-01-23T06:07:53.585Z,29.42
2019-01-23T06:10:22.059Z,30.05
2019-01-23T06:12:51.321Z,27.07
2019-01-23T06:15:21.697Z,26.45
2019-01-23T06:17:50.153Z,28.85
2019-01-23T06:20:19.127Z,27.00
2019-01-23T06:22:47.680Z,27.02
2019-01-23T06:25:17.891Z,29.75
2019-01-23T06:27:47.253Z,28.32
2019-01-23T06:30:19.050Z,29.35
2019-01-23T06:32:47.697Z,31.12
2019-01-23T06:35:17.461Z,27.40
2019-01-23T06:37:45.912Z,28.17
2019-01-23T06:40:15.985Z,29.15
2019-01-23T06:42:44.525Z,28.92
2019-01-23T06:45:14.750Z,28.00
2019-01-23T06:47:43.495Z,29.10
2019-01-23T06:50:15.615Z,27.17
2019-01-23T06:52:44.050Z,29.20
2019-01-23T06:55:13.344Z,28.07
2019-01-23T06:57:41.824Z,30.82
2019-01-23T07:00:27.861Z,29.02
2019-01-23T07:02:56.947Z,33.40
2019-01-23T07:05:25.993Z,30.65
2019-01-23T07:07:55.451Z,29.72
2019-01-23T07:10:25.219Z,30.48
2019-01-23T07:12:53.697Z,29.95
2019-01-23T07:15:22.497Z,31.87
2019-01-23T07:17:50.989Z,31.40
2019-01-23T07:20:25.062Z,28.27
2019-01-23T07:22:53.475Z,28.75
2019-01-23T07:25:23.153Z,28.12
2019-01-23T07:27:53.755Z,28.20
2019-01-23T07:30:29.021Z,29.07
2019-01-23T07:32:59.795Z,27.45
2019-01-23T07:35:29.577Z,29.67
2019-01-23T07:37:58.438Z,29.52
2019-01-23T07:40:27.119Z,31.15
2019-01-23T07:42:57.411Z,29.52
2019-01-23T07:45:26.785Z,29.75
2019-01-23T07:47:55.268Z,29.75
2019-01-23T07:50:25.494Z,32.73
2019-01-23T07:52:54.776Z,30.50
2019-01-23T07:55:23.323Z,30.60
2019-01-23T07:57:53.712Z,27.40
2019-01-23T08:00:31.546Z,28.85
2019-01-23T08:03:00.132Z,27.90
2019-01-23T08:05:28.746Z,30.60
2019-01-23T08:07:57.334Z,30.62
2019-01-23T08:10:26.066Z,29.27
2019-01-23T08:12:54.623Z,30.20
2019-01-23T08:15:26.631Z,29.32
2019-01-23T08:17:55.102Z,29.07
2019-01-23T08:20:24.598Z,28.90
2019-01-23T08:22:53.336Z,29.87
2019-01-23T08:25:21.923Z,29.57
2019-01-23T08:27:50.520Z,31.75
2019-01-23T08:30:22.458Z,30.43
2019-01-23T08:32:51.271Z,31.05
2019-01-23T08:35:21.082Z,34.10
2019-01-23T08:37:49.871Z,31.62
2019-01-23T08:40:18.354Z,34.23
2019-01-23T08:42:47.232Z,32.42
2019-01-23T08:45:15.901Z,32.73
2019-01-23T08:47:44.767Z,32.03
2019-01-23T08:50:20.696Z,32.93
2019-01-23T08:52:49.394Z,29.02
2019-01-23T08:55:18.018Z,30.62
2019-01-23T08:57:46.592Z,33.40
2019-01-23T09:00:17.477Z,30.75
2019-01-23T09:02:45.955Z,31.40
2019-01-23T09:05:14.772Z,31.90
2019-01-23T09:07:43.866Z,29.92
2019-01-23T09:10:16.182Z,31.37
2019-01-23T09:12:44.782Z,32.75
2019-01-23T09:15:14.091Z,30.43
2019-01-23T09:17:42.624Z,30.35
2019-01-23T09:20:12.509Z,29.55
2019-01-23T09:22:41.406Z,30.70
2019-01-23T09:25:14.871Z,32.78
2019-01-23T09:27:45.328Z,30.57
2019-01-23T09:30:21.205Z,33.45
2019-01-23T09:33:52.300Z,30.65
2019-01-23T09:37:02.377Z,31.57
2019-01-23T09:40:10.269Z,30.23
2019-01-23T09:43:29.324Z,28.15
2019-01-23T09:46:45.457Z,30.88
2019-01-23T09:49:58.808Z,30.40
2019-01-23T09:53:25.791Z,31.25
2019-01-23T09:55:55.175Z,29.60
2019-01-23T09:58:23.701Z,28.02
2019-01-23T10:00:52.211Z,29.02
2019-01-23T10:03:23.142Z,30.35
2019-01-23T10:05:51.168Z,27.45
2019-01-23T10:08:19.531Z,28.80
2019-01-23T10:10:49.047Z,30.70
2019-01-23T10:13:17.422Z,31.55
2019-01-23T10:15:53.430Z,27.80
2019-01-23T10:18:21.800Z,29.55
2019-01-23T10:20:50.313Z,29.80
2019-01-23T10:23:18.876Z,29.07
2019-01-23T10:25:47.499Z,32.30
2019-01-23T10:28:15.972Z,27.75
2019-01-23T10:30:44.583Z,29.35
2019-01-23T10:33:12.959Z,28.87
2019-01-23T10:35:41.639Z,29.12
2019-01-23T10:38:10.014Z,27.85
2019-01-23T10:40:38.630Z,27.50
2019-01-23T10:43:07.098Z,29.77
2019-01-23T10:45:35.666Z,31.45
2019-01-23T10:48:04.938Z,32.05
2019-01-23T10:50:33.526Z,30.92
2019-01-23T10:53:02.339Z,32.83
2019-01-23T10:55:31.295Z,33.05
2019-01-23T10:57:59.900Z,30.88
2019-01-23T11:00:30.254Z,32.42
2019-01-23T11:02:59.941Z,32.58
2019-01-23T11:05:28.391Z,30.62
2019-01-23T11:07:57.184Z,33.48
2019-01-23T11:10:25.563Z,29.35
2019-01-23T11:12:55.465Z,33.40
2019-01-23T11:15:23.969Z,32.80
2019-01-23T11:17:52.551Z,31.60
2019-01-23T11:20:21.133Z,29.15
2019-01-23T11:22:49.628Z,31.33
2019-01-23T11:25:18.424Z,32.30
2019-01-23T11:27:47.513Z,29.25
2019-01-23T11:30:19.917Z,30.92
2019-01-23T11:32:48.272Z,30.60
2019-01-23T11:35:17.136Z,32.88
2019-01-23T11:37:45.813Z,30.23
2019-01-23T11:40:19.132Z,31.33
2019-01-23T11:42:47.484Z,31.75
2019-01-23T11:45:16.014Z,32.55
2019-01-23T11:47:44.491Z,29.80
2019-01-23T11:50:21.020Z,30.00
2019-01-23T11:52:46.285Z,32.50
2019-01-23T11:55:15.113Z,34.25
2019-01-23T11:57:43.995Z,43.65
2019-01-23T12:00:19.729Z,38.58
2019-01-23T12:02:48.294Z,36.90
2019-01-23T12:05:19.585Z,33.02
2019-01-23T12:07:48.173Z,31.52
2019-01-23T12:10:20.682Z,32.80
2019-01-23T12:12:49.553Z,31.42
2019-01-23T12:15:20.940Z,33.53
2019-01-23T12:17:50.449Z,33.88
2019-01-23T12:20:19.153Z,30.62
2019-01-23T12:22:48.236Z,30.72
2019-01-23T12:25:16.970Z,27.30
2019-01-23T12:27:45.967Z,29.40
2019-01-23T12:30:19.428Z,25.75
2019-01-23T12:32:50.234Z,26.50
2019-01-23T12:35:19.086Z,29.95
2019-01-23T12:37:47.719Z,29.32
2019-01-23T12:40:17.194Z,28.25
2019-01-23T12:42:45.834Z,28.27
2019-01-23T12:45:18.660Z,29.52
2019-01-23T12:47:47.873Z,28.38
2019-01-23T12:50:22.042Z,29.98
2019-01-23T12:52:51.114Z,28.00
2019-01-23T12:55:19.884Z,26.42
2019-01-23T12:57:48.876Z,25.52
2019-01-23T13:00:28.626Z,26.37
2019-01-23T13:02:58.712Z,26.80
2019-01-23T13:05:29.637Z,28.50
2019-01-23T13:07:58.705Z,26.82
2019-01-23T13:10:27.317Z,26.05
2019-01-23T13:12:56.954Z,27.45
2019-01-23T13:15:26.327Z,26.23
2019-01-23T13:17:55.119Z,25.70
2019-01-23T13:20:24.241Z,28.02
2019-01-23T13:22:54.155Z,25.52
2019-01-23T13:25:24.838Z,27.52
2019-01-23T13:27:53.640Z,25.75
2019-01-23T13:30:24.101Z,25.05
2019-01-23T13:32:52.976Z,27.25
2019-01-23T13:35:28.484Z,25.57
2019-01-23T13:37:56.979Z,31.12
2019-01-23T13:40:34.270Z,26.82
2019-01-23T13:43:05.726Z,28.85
2019-01-23T13:45:35.948Z,27.62
2019-01-23T13:48:06.985Z,29.37
2019-01-23T13:50:35.343Z,25.97
2019-01-23T13:53:03.868Z,25.88
2019-01-23T13:55:32.235Z,26.48
2019-01-23T13:58:00.830Z,28.73
2019-01-23T14:00:34.109Z,29.57
2019-01-23T14:03:02.855Z,28.67
2019-01-23T14:05:31.237Z,30.35
2019-01-23T14:07:59.728Z,29.95
2019-01-23T14:10:28.231Z,27.50
2019-01-23T14:12:57.627Z,28.80
2019-01-23T14:15:29.887Z,31.55
2019-01-23T14:17:58.432Z,27.65
2019-01-23T14:20:28.695Z,26.85
2019-01-23T14:22:57.125Z,27.73
2019-01-23T14:25:26.223Z,31.25
2019-01-23T14:27:54.702Z,32.42
2019-01-23T14:30:38.912Z,31.12
2019-01-23T14:33:07.397Z,30.92
2019-01-23T14:35:38.870Z,35.03
2019-01-23T14:38:07.337Z,33.40
2019-01-23T14:40:35.863Z,30.57
2019-01-23T14:43:05.604Z,31.33
2019-01-23T14:45:35.028Z,28.80
2019-01-23T14:48:04.826Z,30.00
2019-01-23T14:50:33.308Z,28.87
2019-01-23T14:53:02.856Z,27.87
2019-01-23T14:55:31.797Z,31.00
2019-01-23T14:58:00.150Z,28.38
2019-01-23T15:00:31.186Z,30.20
2019-01-23T15:03:00.103Z,27.73
2019-01-23T15:05:31.512Z,29.40
2019-01-23T15:07:59.971Z,28.75
2019-01-23T15:10:29.976Z,29.70
2019-01-23T15:12:58.650Z,31.70
2019-01-23T15:15:28.186Z,29.92
2019-01-23T15:17:56.675Z,27.10
2019-01-23T15:20:33.326Z,28.00
2019-01-23T15:23:01.692Z,26.95
2019-01-23T15:25:30.269Z,27.25
2019-01-23T15:27:58.897Z,26.52
2019-01-23T15:30:28.293Z,26.55
2019-01-23T15:32:56.695Z,30.40
2019-01-23T15:35:25.436Z,26.20
2019-01-23T15:37:53.810Z,28.17
2019-01-23T15:40:27.513Z,28.07
2019-01-23T15:42:55.985Z,28.45
2019-01-23T15:45:24.449Z,27.90
2019-01-23T15:47:52.912Z,29.50
2019-01-23T15:50:23.461Z,29.23
2019-01-23T15:52:52.703Z,29.60
2019-01-23T15:55:22.959Z,34.75
2019-01-23T15:57:51.494Z,30.60
2019-01-23T16:00:29.855Z,29.57
2019-01-23T16:02:58.532Z,30.40
2019-01-23T16:05:27.064Z,33.40
2019-01-23T16:07:55.651Z,32.48
2019-01-23T16:10:26.542Z,33.67
2019-01-23T16:12:54.918Z,32.20
2019-01-23T16:15:26.704Z,32.38
2019-01-23T16:17:55.106Z,31.80
2019-01-23T16:20:23.895Z,33.85
2019-01-23T16:22:52.654Z,36.70
2019-01-23T16:25:21.238Z,35.20
2019-01-23T16:27:49.721Z,37.78
2019-01-23T16:30:27.462Z,36.55
2019-01-23T16:32:57.058Z,37.50
2019-01-23T16:35:26.029Z,35.17
2019-01-23T16:37:55.632Z,38.83
2019-01-23T16:40:24.098Z,36.83
2019-01-23T16:42:54.403Z,37.58
2019-01-23T16:45:24.170Z,36.93
2019-01-23T16:47:53.239Z,35.73
2019-01-23T16:50:23.642Z,38.67
2019-01-23T16:52:53.873Z,38.90
2019-01-23T16:55:22.923Z,46.83
2019-01-23T16:57:53.882Z,39.55
2019-01-23T17:00:29.879Z,37.45
2019-01-23T17:02:59.455Z,36.90
2019-01-23T17:05:29.827Z,36.55
2019-01-23T17:08:01.975Z,34.30
2019-01-23T17:10:30.476Z,39.27
2019-01-23T17:12:59.129Z,35.63
2019-01-23T17:15:27.737Z,34.43
2019-01-23T17:17:57.731Z,37.45
2019-01-23T17:20:42.239Z,36.53
2019-01-23T17:23:10.953Z,37.20
2019-01-23T17:25:39.821Z,40.05
2019-01-23T17:28:10.853Z,35.38
2019-01-23T17:30:39.217Z,36.05
2019-01-23T17:33:07.749Z,38.70
2019-01-23T17:35:37.271Z,35.95
2019-01-23T17:38:06.080Z,35.03
2019-01-23T17:40:34.444Z,34.30
2019-01-23T17:43:03.155Z,36.55
2019-01-23T17:45:35.109Z,35.45
2019-01-23T17:48:07.502Z,38.25
2019-01-23T17:50:35.973Z,36.15
2019-01-23T17:53:04.450Z,36.95
2019-01-23T17:55:38.467Z,37.65
2019-01-23T17:58:10.683Z,38.15
2019-01-23T18:00:46.909Z,37.63
2019-01-23T18:03:15.499Z,36.08
2019-01-23T18:05:51.153Z,35.63
2019-01-23T18:08:16.086Z,33.30
2019-01-23T18:10:44.446Z,33.73
2019-01-23T18:13:12.830Z,34.67
2019-01-23T18:15:42.643Z,33.05
2019-01-23T18:18:11.192Z,34.25
2019-01-23T18:20:39.673Z,34.85
2019-01-23T18:23:10.055Z,35.92
2019-01-23T18:25:40.539Z,33.25
2019-01-23T18:28:08.918Z,35.00
2019-01-23T18:31:13.093Z,33.85
2019-01-23T18:34:32.649Z,36.85
2019-01-23T18:37:41.150Z,35.28
2019-01-23T18:40:44.412Z,37.17
2019-01-23T18:44:01.634Z,39.60
2019-01-23T18:47:32.745Z,38.17
2019-01-23T18:51:19.919Z,33.25
2019-01-23T18:53:48.280Z,35.10
2019-01-23T18:56:17.189Z,36.13
2019-01-23T18:58:45.652Z,33.35
2019-01-23T19:01:14.353Z,32.85
2019-01-23T19:03:43.627Z,32.78
2019-01-23T19:06:12.442Z,34.70
2019-01-23T19:08:41.270Z,34.88
2019-01-23T19:11:09.825Z,35.80
2019-01-23T19:13:38.296Z,35.52
2019-01-23T19:16:07.337Z,35.80
2019-01-23T19:18:35.821Z,34.23
2019-01-23T19:21:04.756Z,34.98
2019-01-23T19:23:33.161Z,32.55
2019-01-23T19:26:01.680Z,32.93
2019-01-23T19:28:30.204Z,34.03
2019-01-23T19:30:59.063Z,33.95
2019-01-23T19:33:27.517Z,35.28
2019-01-23T19:35:57.077Z,34.55
2019-01-23T19:38:25.794Z,33.92
2019-01-23T19:40:55.288Z,33.18
2019-01-23T19:43:24.778Z,37.13
2019-01-23T19:45:53.215Z,34.63
2019-01-23T19:48:21.717Z,35.90
2019-01-23T19:50:50.302Z,34.33
2019-01-23T19:53:18.665Z,33.48
2019-01-23T19:55:47.822Z,34.78
2019-01-23T19:58:18.031Z,35.98
2019-01-23T20:00:48.183Z,37.17
2019-01-23T20:03:20.516Z,38.17
2019-01-23T20:05:48.167Z,37.48
2019-01-23T20:08:17.365Z,36.95
2019-01-23T20:10:47.532Z,37.53
2019-01-23T20:13:18.151Z,40.38
2019-01-23T20:15:47.005Z,37.75
2019-01-23T20:18:15.650Z,38.88
2019-01-23T20:20:44.427Z,36.77
2019-01-23T20:23:13.132Z,41.63
2019-01-23T20:25:43.015Z,42.03
2019-01-23T20:28:13.065Z,44.30
2019-01-23T20:30:43.761Z,40.75
2019-01-23T20:33:12.818Z,40.58
2019-01-23T20:35:41.972Z,38.53
2019-01-23T20:38:11.277Z,37.10
2019-01-23T20:40:39.667Z,36.68
2019-01-23T20:43:08.584Z,37.85
2019-01-23T20:45:39.144Z,40.17
2019-01-23T20:48:10.199Z,36.55
2019-01-23T20:50:39.495Z,38.60
2019-01-23T20:53:08.042Z,37.80
2019-01-23T20:55:37.005Z,39.20
2019-01-23T20:58:05.894Z,38.92
2019-01-23T21:00:35.768Z,36.85
2019-01-23T21:03:04.622Z,35.10
2019-01-23T21:05:45.734Z,36.73
2019-01-23T21:08:14.192Z,38.75
2019-01-23T21:10:42.666Z,38.50
2019-01-23T21:13:11.985Z,36.28
2019-01-23T21:15:42.421Z,41.37
2019-01-23T21:18:10.780Z,37.75
2019-01-23T21:20:41.107Z,38.90
2019-01-23T21:23:12.527Z,37.78
2019-01-23T21:25:42.880Z,40.20
2019-01-23T21:28:11.265Z,42.55
2019-01-23T21:30:39.711Z,40.65
2019-01-23T21:33:08.154Z,38.25
2019-01-23T21:35:36.637Z,39.18
2019-01-23T21:38:05.936Z,39.53
2019-01-23T21:40:34.291Z,38.75
2019-01-23T21:43:02.958Z,40.30
2019-01-23T21:45:35.650Z,39.25
2019-01-23T21:48:04.986Z,38.20
2019-01-23T21:50:33.374Z,41.92
2019-01-23T21:53:03.352Z,38.55
2019-01-23T21:55:31.787Z,38.67
2019-01-23T21:58:00.164Z,40.25
2019-01-23T22:00:41.786Z,39.80
2019-01-23T22:03:11.087Z,38.02
2019-01-23T22:05:39.542Z,42.03
2019-01-23T22:08:08.717Z,38.75
2019-01-23T22:10:37.113Z,42.58
2019-01-23T22:13:05.791Z,40.70
2019-01-23T22:15:34.341Z,37.45
2019-01-23T22:18:04.123Z,41.77
2019-01-23T22:20:32.704Z,42.27
2019-01-23T22:23:01.052Z,42.17
2019-01-23T22:25:29.673Z,40.25
2019-01-23T22:27:58.035Z,40.65
2019-01-23T22:30:28.898Z,42.40
2019-01-23T22:32:57.349Z,39.58
2019-01-23T22:35:25.935Z,37.70
2019-01-23T22:37:55.122Z,34.95
2019-01-23T22:40:24.196Z,37.50
2019-01-23T22:42:52.556Z,38.40
2019-01-23T22:45:20.950Z,33.80
2019-01-23T22:47:49.401Z,32.00
2019-01-23T22:50:28.070Z,34.27
2019-01-23T22:52:56.622Z,35.80
2019-01-23T22:55:25.012Z,35.70
2019-01-23T22:57:54.776Z,34.78
2019-01-23T23:01:14.508Z,34.30
2019-01-23T23:03:45.211Z,33.15
2019-01-23T23:06:13.768Z,34.75
2019-01-23T23:08:42.125Z,31.02
2019-01-23T23:11:10.697Z,32.40
2019-01-23T23:13:40.048Z,34.45
2019-01-23T23:16:08.540Z,30.62
2019-01-23T23:18:37.211Z,31.33
2019-01-23T23:21:05.687Z,31.35
2019-01-23T23:23:34.032Z,28.85
2019-01-23T23:26:02.537Z,30.35
2019-01-23T23:28:30.908Z,28.00
2019-01-23T23:30:59.281Z,30.97
2019-01-23T23:33:27.631Z,29.25
2019-01-23T23:35:56.004Z,31.10
2019-01-23T23:38:24.465Z,30.30
2019-01-23T23:40:53.518Z,33.08
2019-01-23T23:43:21.903Z,30.20
2019-01-23T23:45:50.261Z,29.30
2019-01-23T23:48:18.720Z,30.60
2019-01-23T23:50:47.015Z,31.02
2019-01-23T23:53:15.397Z,29.87
2019-01-23T23:55:43.996Z,30.80
2019-01-23T23:58:12.550Z,31.33
